Time;durP1;ratioP1;P1;durP2;ratioP2;P2;SDS_P1;SDS_P2;PMS_P1;PMS_P2;Temp;Humidity;BMP_temperature;BMP_pressure;BME280_temperature;BME280_humidity;BME280_pressure;Samples;Min_cycle;Max_cycle;Signal;HPM_P1;HPM_P2
2021/08/14 00:02:24;;;;;;;1.42;1.33;;;25.80;52.00;;;;;;5032399;28;20602;-54
2021/08/14 00:04:50;;;;;;;1.48;1.38;;;25.80;51.30;;;;;;5031085;28;20650;-54
2021/08/14 00:07:16;;;;;;;1.80;1.63;;;25.80;51.30;;;;;;5031916;28;20662;-56
2021/08/14 00:09:43;;;;;;;1.55;1.25;;;25.80;51.30;;;;;;5031411;28;20670;-56
2021/08/14 00:12:09;;;;;;;1.63;1.30;;;25.80;51.30;;;;;;5032229;28;20726;-55
2021/08/14 00:14:36;;;;;;;1.85;1.70;;;25.70;51.20;;;;;;5031453;28;20208;-56
2021/08/14 00:17:02;;;;;;;1.48;1.33;;;25.70;51.20;;;;;;5031488;28;20271;-54
2021/08/14 00:19:29;;;;;;;2.03;1.67;;;25.80;51.30;;;;;;5031634;28;20208;-56
2021/08/14 00:21:56;;;;;;;2.60;1.60;;;25.80;51.30;;;;;;5032276;28;20217;-56
2021/08/14 00:24:22;;;;;;;1.40;1.27;;;25.80;51.30;;;;;;5030514;28;20249;-57
2021/08/14 00:26:49;;;;;;;2.38;1.48;;;25.70;51.20;;;;;;5030520;28;20223;-56
2021/08/14 00:29:16;;;;;;;1.60;1.35;;;25.70;51.20;;;;;;5031283;28;20202;-55
2021/08/14 00:31:43;;;;;;;1.98;1.50;;;25.70;51.20;;;;;;5032256;28;20203;-55
2021/08/14 00:34:10;;;;;;;1.70;1.60;;;25.70;51.10;;;;;;5031091;28;20284;-56
2021/08/14 00:36:36;;;;;;;1.50;1.27;;;25.80;51.20;;;;;;5030630;28;20219;-56
2021/08/14 00:39:02;;;;;;;1.50;1.40;;;25.70;51.10;;;;;;5031058;28;20206;-56
2021/08/14 00:41:29;;;;;;;2.38;1.50;;;25.70;51.10;;;;;;5030949;28;20203;-56
2021/08/14 00:43:55;;;;;;;1.60;1.45;;;25.70;51.10;;;;;;5030132;28;20217;-55
2021/08/14 00:46:22;;;;;;;1.73;1.63;;;25.70;51.10;;;;;;5028675;28;20222;-55
2021/08/14 00:48:48;;;;;;;1.45;1.35;;;25.70;51.10;;;;;;5031103;28;20203;-56
2021/08/14 00:51:15;;;;;;;1.60;1.50;;;25.70;51.10;;;;;;5030610;28;20228;-55
2021/08/14 00:53:41;;;;;;;2.17;1.48;;;25.70;51.10;;;;;;5030918;28;20234;-56
2021/08/14 00:56:07;;;;;;;1.63;1.52;;;25.70;51.10;;;;;;5030089;28;20234;-53
2021/08/14 00:58:34;;;;;;;1.80;1.42;;;25.70;51.10;;;;;;5031492;28;20205;-57
2021/08/14 01:01:00;;;;;;;1.63;1.30;;;25.70;51.10;;;;;;5030167;28;20214;-53
2021/08/14 01:03:27;;;;;;;1.42;1.33;;;25.70;51.00;;;;;;5030514;28;20199;-53
2021/08/14 01:05:54;;;;;;;1.70;1.60;;;25.70;51.10;;;;;;5029651;28;20203;-54
2021/08/14 01:08:20;;;;;;;1.98;1.40;;;25.70;51.00;;;;;;5031297;28;20285;-58
2021/08/14 01:10:46;;;;;;;1.83;1.50;;;25.70;51.00;;;;;;5030204;28;20202;-56
2021/08/14 01:13:13;;;;;;;1.63;1.20;;;25.70;51.00;;;;;;5031031;28;20233;-55
2021/08/14 01:15:39;;;;;;;2.38;1.45;;;25.70;51.00;;;;;;5029877;28;20201;-55
2021/08/14 01:18:06;;;;;;;2.65;1.42;;;25.70;51.00;;;;;;5030678;28;20702;-56
2021/08/14 01:20:32;;;;;;;2.75;1.60;;;25.70;51.00;;;;;;5030011;28;20810;-56
2021/08/14 01:22:59;;;;;;;1.60;1.50;;;25.70;51.00;;;;;;5030168;28;20528;-57
2021/08/14 01:25:25;;;;;;;1.63;1.40;;;25.70;51.00;;;;;;5030095;28;20198;-57
2021/08/14 01:27:52;;;;;;;1.50;1.40;;;25.70;51.00;;;;;;5029825;28;20371;-57
2021/08/14 01:30:18;;;;;;;2.15;1.48;;;25.70;51.00;;;;;;5030708;28;20548;-54
2021/08/14 01:32:45;;;;;;;1.45;1.35;;;25.70;51.00;;;;;;5029874;28;20276;-55
2021/08/14 01:35:11;;;;;;;1.65;1.40;;;25.70;51.00;;;;;;5030805;28;20210;-55
2021/08/14 01:37:38;;;;;;;1.63;1.52;;;25.70;51.00;;;;;;5029566;28;20218;-54
2021/08/14 01:40:04;;;;;;;1.55;1.45;;;25.70;51.00;;;;;;5030335;28;20584;-55
2021/08/14 01:42:30;;;;;;;1.42;1.30;;;25.70;51.00;;;;;;5029732;28;20556;-56
2021/08/14 01:44:57;;;;;;;1.63;1.38;;;25.70;51.10;;;;;;5030245;28;20301;-55
2021/08/14 01:47:23;;;;;;;1.58;1.48;;;25.70;51.00;;;;;;5028709;28;20541;-56
2021/08/14 01:49:50;;;;;;;1.50;1.40;;;25.70;51.00;;;;;;5030608;28;20565;-55
2021/08/14 01:52:16;;;;;;;1.50;1.38;;;25.70;51.10;;;;;;5029125;28;20277;-56
2021/08/14 01:54:43;;;;;;;1.83;1.27;;;25.70;51.00;;;;;;5028752;28;21016;-54
2021/08/14 01:57:09;;;;;;;1.45;1.35;;;25.70;51.00;;;;;;5029085;28;20852;-56
2021/08/14 01:59:36;;;;;;;2.10;1.90;;;25.70;51.00;;;;;;5023087;28;20762;-56
2021/08/14 02:02:02;;;;;;;1.65;1.50;;;25.70;51.00;;;;;;5029858;28;20575;-55
2021/08/14 02:04:29;;;;;;;1.58;1.48;;;25.70;51.00;;;;;;5029249;28;20226;-54
2021/08/14 02:06:55;;;;;;;1.40;1.30;;;25.70;51.00;;;;;;5029273;28;20305;-55
2021/08/14 02:09:21;;;;;;;1.60;1.50;;;25.70;51.10;;;;;;5030188;28;20209;-56
2021/08/14 02:11:48;;;;;;;1.52;1.20;;;25.80;51.20;;;;;;5030758;28;20210;-56
2021/08/14 02:14:14;;;;;;;1.80;1.38;;;25.70;51.00;;;;;;5033941;28;20218;-56
2021/08/14 02:16:41;;;;;;;1.52;1.42;;;25.70;51.00;;;;;;5033290;28;20222;-54
2021/08/14 02:19:07;;;;;;;1.77;1.35;;;25.70;51.10;;;;;;5029929;28;20224;-55
2021/08/14 02:21:34;;;;;;;1.35;1.23;;;25.70;51.10;;;;;;5034453;28;20581;-56
2021/08/14 02:24:00;;;;;;;1.58;1.40;;;25.70;51.10;;;;;;5032648;28;20202;-52
2021/08/14 02:26:26;;;;;;;1.98;1.60;;;25.70;51.10;;;;;;5029333;28;20559;-56
2021/08/14 02:28:53;;;;;;;3.20;1.67;;;25.70;51.30;;;;;;5031372;28;20654;-56
2021/08/14 02:31:19;;;;;;;1.80;1.23;;;25.70;51.30;;;;;;5033422;28;20256;-56
2021/08/14 02:33:46;;;;;;;1.60;1.30;;;25.70;51.20;;;;;;5033566;28;20744;-56
2021/08/14 02:36:12;;;;;;;2.45;1.25;;;25.70;51.20;;;;;;5032719;28;20595;-53
2021/08/14 02:38:39;;;;;;;2.13;1.40;;;25.70;51.20;;;;;;5033406;28;20669;-56
2021/08/14 02:41:05;;;;;;;1.42;1.33;;;25.80;51.30;;;;;;5033632;28;20199;-56
2021/08/14 02:43:32;;;;;;;1.50;1.40;;;25.70;51.20;;;;;;5033083;28;20203;-55
2021/08/14 02:46:00;;;;;;;1.85;1.63;;;25.70;51.30;;;;;;5033329;28;20222;-56
2021/08/14 02:48:26;;;;;;;1.75;1.65;;;25.70;51.20;;;;;;5031700;28;20210;-56
2021/08/14 02:50:53;;;;;;;1.48;1.38;;;25.70;51.30;;;;;;5033295;28;20202;-56
2021/08/14 02:53:19;;;;;;;1.73;1.63;;;25.70;51.20;;;;;;5033637;28;20230;-55
2021/08/14 02:55:46;;;;;;;1.95;1.55;;;25.70;51.20;;;;;;5032875;28;20232;-55
2021/08/14 02:58:12;;;;;;;1.90;1.77;;;25.70;51.30;;;;;;5032887;28;20293;-56
2021/08/14 03:00:39;;;;;;;1.50;1.30;;;25.70;51.30;;;;;;5033286;28;20273;-56
2021/08/14 03:03:05;;;;;;;1.33;1.23;;;25.70;52.10;;;;;;5032864;28;20194;-56
2021/08/14 03:05:32;;;;;;;1.40;1.30;;;25.70;51.40;;;;;;5032784;28;20226;-54
2021/08/14 03:07:58;;;;;;;2.75;1.52;;;25.70;51.30;;;;;;5033041;28;20221;-55
2021/08/14 03:10:25;;;;;;;1.98;1.58;;;25.70;51.40;;;;;;5033576;28;20206;-57
2021/08/14 03:12:52;;;;;;;1.90;1.60;;;25.70;51.40;;;;;;5032195;28;20233;-58
2021/08/14 03:15:18;;;;;;;2.42;1.52;;;25.70;51.40;;;;;;5032198;28;20199;-55
2021/08/14 03:17:46;;;;;;;1.73;1.50;;;25.70;52.10;;;;;;5031515;28;20222;-56
2021/08/14 03:20:12;;;;;;;2.00;1.40;;;25.70;51.80;;;;;;5033136;28;20296;-54
2021/08/14 03:22:39;;;;;;;1.65;1.30;;;25.70;51.70;;;;;;5032861;28;20217;-56
2021/08/14 03:25:05;;;;;;;1.52;1.42;;;25.70;51.70;;;;;;5031794;28;20202;-56
2021/08/14 03:27:31;;;;;;;2.03;1.75;;;25.70;51.70;;;;;;5030927;28;20213;-56
2021/08/14 03:29:58;;;;;;;2.45;1.40;;;25.70;51.70;;;;;;5027656;28;20198;-56
2021/08/14 03:32:24;;;;;;;1.50;1.40;;;25.70;51.70;;;;;;5032039;28;20202;-53
2021/08/14 03:34:51;;;;;;;1.58;1.33;;;25.70;51.60;;;;;;5032735;28;20230;-56
2021/08/14 03:37:17;;;;;;;1.50;1.40;;;25.70;51.60;;;;;;5031699;28;20313;-56
2021/08/14 03:39:44;;;;;;;1.50;1.40;;;25.70;51.70;;;;;;5032251;28;20199;-55
2021/08/14 03:42:10;;;;;;;2.47;1.40;;;25.70;51.60;;;;;;5032434;28;20194;-56
2021/08/14 03:44:36;;;;;;;2.05;1.40;;;25.70;51.60;;;;;;5031859;28;20301;-55
2021/08/14 03:47:03;;;;;;;2.58;1.58;;;25.70;51.70;;;;;;5031485;28;20228;-56
2021/08/14 03:49:30;;;;;;;1.63;1.33;;;25.70;51.70;;;;;;5032456;28;20277;-56
2021/08/14 03:51:56;;;;;;;2.80;1.42;;;25.70;51.70;;;;;;5030012;28;20206;-56
2021/08/14 03:54:23;;;;;;;1.77;1.50;;;25.70;51.70;;;;;;5031520;28;20248;-53
2021/08/14 03:56:49;;;;;;;2.58;1.20;;;25.70;51.70;;;;;;5031982;28;20222;-54
2021/08/14 03:59:16;;;;;;;1.77;1.67;;;25.70;51.60;;;;;;5028596;28;20230;-57
2021/08/14 04:01:42;;;;;;;2.30;2.00;;;25.70;51.60;;;;;;5028653;28;20217;-56
2021/08/14 04:04:08;;;;;;;1.40;1.30;;;25.70;51.70;;;;;;5031579;28;20210;-56
2021/08/14 04:06:35;;;;;;;2.13;1.40;;;25.70;51.70;;;;;;5032118;28;20223;-56
2021/08/14 04:09:01;;;;;;;1.88;1.55;;;25.70;51.60;;;;;;5031981;28;20195;-56
2021/08/14 04:11:28;;;;;;;1.40;1.25;;;25.70;51.60;;;;;;5031808;28;20202;-52
2021/08/14 04:13:54;;;;;;;1.90;1.65;;;25.70;51.70;;;;;;5032172;28;20228;-55
2021/08/14 04:16:21;;;;;;;2.47;1.30;;;25.70;51.70;;;;;;5030878;28;20225;-55
2021/08/14 04:18:47;;;;;;;1.35;1.25;;;25.70;51.70;;;;;;5032773;28;20228;-56
2021/08/14 04:21:13;;;;;;;2.20;1.38;;;25.70;51.60;;;;;;5031252;28;20211;-56
2021/08/14 04:23:40;;;;;;;1.55;1.40;;;25.60;51.60;;;;;;5032104;28;20284;-55
2021/08/14 04:26:06;;;;;;;1.80;1.70;;;25.70;51.60;;;;;;5030572;28;20218;-57
2021/08/14 04:28:33;;;;;;;2.78;1.52;;;25.70;51.70;;;;;;5032398;28;20206;-56
2021/08/14 04:30:59;;;;;;;2.00;1.42;;;25.70;51.60;;;;;;5031041;28;20209;-55
2021/08/14 04:33:26;;;;;;;1.60;1.50;;;25.70;51.60;;;;;;5031188;28;20234;-57
2021/08/14 04:35:52;;;;;;;1.80;1.70;;;25.70;51.60;;;;;;5030939;28;20306;-57
2021/08/14 04:38:19;;;;;;;1.77;1.50;;;25.70;51.70;;;;;;5032024;28;20207;-56
2021/08/14 04:40:45;;;;;;;1.90;1.50;;;25.70;51.60;;;;;;5031279;28;20202;-56
2021/08/14 04:43:12;;;;;;;2.50;1.50;;;25.70;51.60;;;;;;5030618;28;20242;-53
2021/08/14 04:45:38;;;;;;;1.85;1.50;;;25.70;51.60;;;;;;5030212;28;20228;-57
2021/08/14 04:48:05;;;;;;;3.08;1.65;;;25.70;51.60;;;;;;5031380;28;20195;-58
2021/08/14 04:50:31;;;;;;;2.03;1.65;;;25.70;51.60;;;;;;5030574;28;20204;-56
2021/08/14 04:52:58;;;;;;;2.00;1.60;;;25.70;51.60;;;;;;5030926;28;20298;-54
2021/08/14 04:55:24;;;;;;;1.38;1.27;;;25.70;51.50;;;;;;5028789;28;20232;-57
2021/08/14 04:57:51;;;;;;;1.67;1.58;;;25.70;51.60;;;;;;5030429;28;20247;-55
2021/08/14 05:00:17;;;;;;;2.10;1.38;;;25.70;51.60;;;;;;5030235;28;20205;-56
2021/08/14 05:02:44;;;;;;;2.22;1.73;;;25.70;51.60;;;;;;5031758;28;20202;-56
2021/08/14 05:05:10;;;;;;;1.80;1.55;;;25.70;51.60;;;;;;5030103;28;20649;-53
2021/08/14 05:07:36;;;;;;;1.70;1.60;;;25.70;51.60;;;;;;5030453;28;20198;-54
2021/08/14 05:10:03;;;;;;;1.55;1.45;;;25.70;51.60;;;;;;5030612;28;20202;-53
2021/08/14 05:12:30;;;;;;;1.60;1.50;;;25.70;51.60;;;;;;5031311;28;20195;-54
2021/08/14 05:14:56;;;;;;;2.25;1.52;;;25.70;51.60;;;;;;5029691;28;20237;-55
2021/08/14 05:17:22;;;;;;;2.40;1.70;;;25.70;51.60;;;;;;5030760;28;20203;-53
2021/08/14 05:19:49;;;;;;;2.53;1.70;;;25.70;51.70;;;;;;5030506;28;20217;-53
2021/08/14 05:22:16;;;;;;;2.10;1.58;;;25.70;51.60;;;;;;5031132;28;20210;-55
2021/08/14 05:24:42;;;;;;;1.85;1.50;;;25.70;51.60;;;;;;5030162;28;20211;-56
2021/08/14 05:27:09;;;;;;;1.40;1.27;;;25.70;51.60;;;;;;5030203;28;20210;-57
2021/08/14 05:29:35;;;;;;;1.77;1.40;;;25.70;51.60;;;;;;5030307;28;20203;-56
2021/08/14 05:32:02;;;;;;;1.75;1.40;;;25.70;51.60;;;;;;5031334;28;20228;-54
2021/08/14 05:34:28;;;;;;;1.50;1.40;;;25.70;51.50;;;;;;5029144;28;20234;-55
2021/08/14 05:36:55;;;;;;;2.13;1.60;;;25.70;51.60;;;;;;5024386;28;20229;-55
2021/08/14 05:39:21;;;;;;;1.65;1.52;;;25.70;51.60;;;;;;5030308;28;20226;-56
2021/08/14 05:41:52;;;;;;;1.63;1.52;;;25.70;51.50;;;;;;5030583;28;20293;-55
2021/08/14 05:44:18;;;;;;;1.50;1.40;;;25.70;51.60;;;;;;5030295;28;20209;-55
2021/08/14 05:46:44;;;;;;;2.15;1.60;;;25.70;51.50;;;;;;5027814;28;20218;-55
2021/08/14 05:49:11;;;;;;;1.40;1.30;;;25.70;51.50;;;;;;5029050;28;20287;-55
2021/08/14 05:51:37;;;;;;;2.95;1.48;;;25.70;51.50;;;;;;5030057;28;20205;-56
2021/08/14 05:54:04;;;;;;;2.08;1.73;;;25.70;51.50;;;;;;5028080;28;20229;-55
2021/08/14 05:56:30;;;;;;;2.33;1.48;;;25.70;51.50;;;;;;5028279;28;20229;-56
2021/08/14 05:58:57;;;;;;;1.52;1.40;;;25.70;51.50;;;;;;5030614;28;20305;-54
2021/08/14 06:01:23;;;;;;;1.58;1.48;;;25.70;51.50;;;;;;5026767;28;20448;-55
2021/08/14 06:03:49;;;;;;;1.60;1.50;;;25.70;51.50;;;;;;5030412;28;20203;-55
2021/08/14 06:06:16;;;;;;;2.65;1.48;;;25.70;51.50;;;;;;5029333;28;20223;-56
2021/08/14 06:08:42;;;;;;;1.63;1.52;;;25.70;51.50;;;;;;5030201;28;20220;-55
2021/08/14 06:11:09;;;;;;;2.00;1.70;;;25.70;51.50;;;;;;5029364;28;20202;-55
2021/08/14 06:13:35;;;;;;;1.73;1.23;;;25.70;51.50;;;;;;5030843;28;20226;-55
2021/08/14 06:16:03;;;;;;;1.65;1.50;;;25.70;51.50;;;;;;5028733;28;20634;-56
2021/08/14 06:18:30;;;;;;;1.50;1.40;;;25.70;51.50;;;;;;5029940;28;20231;-54
2021/08/14 06:20:56;;;;;;;1.42;1.30;;;25.70;51.50;;;;;;5029961;28;20276;-57
2021/08/14 06:23:23;;;;;;;1.73;1.42;;;25.70;51.50;;;;;;5028993;28;20211;-56
2021/08/14 06:25:49;;;;;;;1.42;1.33;;;25.70;51.50;;;;;;5029938;28;20257;-57
2021/08/14 06:28:15;;;;;;;2.25;1.50;;;25.70;51.40;;;;;;5029752;28;20217;-56
2021/08/14 06:30:42;;;;;;;1.92;1.48;;;25.70;51.50;;;;;;5030338;28;20216;-56
2021/08/14 06:33:08;;;;;;;1.63;1.52;;;25.70;51.40;;;;;;5030163;28;20202;-57
2021/08/14 06:35:35;;;;;;;1.77;1.50;;;25.70;51.40;;;;;;5028843;28;20302;-56
2021/08/14 06:38:01;;;;;;;2.53;1.50;;;25.70;51.50;;;;;;5030361;28;20216;-56
2021/08/14 06:40:28;;;;;;;1.70;1.60;;;25.70;51.40;;;;;;5028812;28;20211;-56
2021/08/14 06:42:54;;;;;;;1.58;1.48;;;25.70;51.40;;;;;;5029047;28;20194;-56
2021/08/14 06:45:21;;;;;;;1.70;1.60;;;25.70;51.40;;;;;;5022321;28;20218;-56
2021/08/14 06:47:47;;;;;;;1.88;1.50;;;25.70;51.40;;;;;;5029745;28;20203;-56
2021/08/14 06:50:14;;;;;;;1.60;1.50;;;25.70;51.40;;;;;;5028796;28;20569;-57
2021/08/14 06:52:40;;;;;;;2.03;1.63;;;25.70;51.30;;;;;;5028524;28;20590;-54
2021/08/14 06:55:07;;;;;;;1.40;1.30;;;25.70;51.30;;;;;;5029240;28;20601;-54
2021/08/14 06:57:33;;;;;;;1.75;1.65;;;25.80;51.30;;;;;;5028968;28;20207;-55
2021/08/14 07:00:00;;;;;;;1.60;1.50;;;25.70;51.30;;;;;;5031491;28;20206;-55
2021/08/14 07:02:26;;;;;;;1.63;1.52;;;25.70;51.40;;;;;;5033690;28;20263;-57
2021/08/14 07:04:53;;;;;;;1.40;1.30;;;25.80;51.40;;;;;;5027592;28;20229;-53
2021/08/14 07:07:19;;;;;;;1.70;1.60;;;25.80;51.70;;;;;;5044017;28;20212;-60
2021/08/14 07:09:45;;;;;;;1.92;1.58;;;25.80;52.10;;;;;;5035210;28;20205;-56
2021/08/14 07:12:13;;;;;;;1.73;1.50;;;25.90;52.10;;;;;;5033694;28;20203;-56
2021/08/14 07:14:40;;;;;;;1.75;1.60;;;25.90;51.70;;;;;;5033514;28;20234;-56
2021/08/14 07:17:06;;;;;;;1.58;1.48;;;25.90;51.70;;;;;;5039206;28;20207;-56
2021/08/14 07:19:33;;;;;;;1.40;1.30;;;25.90;51.70;;;;;;5039636;28;20195;-56
2021/08/14 07:21:59;;;;;;;4.28;1.60;;;25.90;52.40;;;;;;5042460;28;20209;-58
2021/08/14 07:24:25;;;;;;;4.40;1.67;;;25.90;52.60;;;;;;5029761;28;20211;-51
2021/08/14 07:26:52;;;;;;;2.97;1.63;;;26.00;52.70;;;;;;5030258;28;20213;-53
2021/08/14 07:29:18;;;;;;;2.78;2.00;;;25.90;52.50;;;;;;5039320;28;20195;-52
2021/08/14 07:31:45;;;;;;;2.15;1.85;;;25.90;52.50;;;;;;5029053;28;20206;-57
2021/08/14 07:34:11;;;;;;;2.55;1.80;;;25.90;52.80;;;;;;5026354;28;20309;-49
2021/08/14 07:36:38;;;;;;;2.35;1.80;;;26.00;52.80;;;;;;5029936;28;20223;-49
2021/08/14 07:39:06;;;;;;;1.85;1.55;;;26.00;52.90;;;;;;5031849;28;20233;-47
2021/08/14 07:41:33;;;;;;;2.38;1.80;;;26.00;52.40;;;;;;5016026;28;20245;-51
2021/08/14 07:43:59;;;;;;;3.70;2.13;;;26.00;53.10;;;;;;5032045;28;20206;-48
2021/08/14 07:46:26;;;;;;;3.03;1.70;;;26.00;52.80;;;;;;5031708;28;20240;-52
2021/08/14 07:48:52;;;;;;;2.35;1.70;;;26.00;53.10;;;;;;5040864;28;20198;-51
2021/08/14 07:51:19;;;;;;;7.18;2.40;;;26.10;53.10;;;;;;5034660;28;20706;-55
2021/08/14 07:53:45;;;;;;;3.20;2.03;;;26.10;53.50;;;;;;5030070;28;20289;-58
2021/08/14 07:56:12;;;;;;;4.18;1.90;;;26.10;52.90;;;;;;5035629;28;20214;-51
2021/08/14 07:58:38;;;;;;;7.65;2.97;;;26.10;52.90;;;;;;5046674;28;20295;-55
2021/08/14 08:01:05;;;;;;;8.48;2.97;;;26.10;53.00;;;;;;5039420;28;20698;-54
2021/08/14 08:03:31;;;;;;;10.95;3.60;;;26.10;53.00;;;;;;5042934;28;20204;-56
2021/08/14 08:05:57;;;;;;;8.20;2.97;;;26.10;53.10;;;;;;5033985;28;20223;-57
2021/08/14 08:08:24;;;;;;;11.40;3.50;;;26.10;53.50;;;;;;5031710;28;20305;-55
2021/08/14 08:10:50;;;;;;;10.55;3.72;;;26.10;54.80;;;;;;5032997;28;20294;-54
2021/08/14 08:13:17;;;;;;;9.68;3.25;;;26.10;54.70;;;;;;5040072;28;20237;-54
2021/08/14 08:15:43;;;;;;;5.88;3.15;;;26.10;55.10;;;;;;5032212;28;20252;-55
2021/08/14 08:18:10;;;;;;;12.07;4.43;;;26.00;54.40;;;;;;5042494;28;20198;-54
2021/08/14 08:20:36;;;;;;;15.43;4.50;;;26.10;54.90;;;;;;5028311;28;20224;-53
2021/08/14 08:23:03;;;;;;;13.95;5.38;;;26.00;54.60;;;;;;5031329;28;20204;-50
2021/08/14 08:25:29;;;;;;;13.18;4.93;;;26.10;54.70;;;;;;5031124;28;20226;-48
2021/08/14 08:28:01;;;;;;;12.18;4.75;;;26.00;55.40;;;;;;5031747;28;20985;-52
2021/08/14 08:30:27;;;;;;;10.80;4.20;;;26.10;55.60;;;;;;5030994;28;20269;-54
2021/08/14 08:32:54;;;;;;;12.98;4.80;;;26.10;56.40;;;;;;5031035;28;20552;-55
2021/08/14 08:35:20;;;;;;;12.88;7.00;;;26.10;57.50;;;;;;5031009;28;20599;-55
2021/08/14 08:37:46;;;;;;;7.25;5.55;;;25.90;51.70;;;;;;5031337;28;20212;-55
2021/08/14 08:40:13;;;;;;;8.35;6.05;;;25.60;49.90;;;;;;5030852;28;20285;-54
2021/08/14 08:42:39;;;;;;;9.35;6.03;;;25.60;49.50;;;;;;5031455;28;20215;-55
2021/08/14 08:45:06;;;;;;;7.10;5.95;;;25.40;47.70;;;;;;5031316;28;20250;-54
2021/08/14 08:47:33;;;;;;;8.70;5.95;;;25.20;47.30;;;;;;5029708;28;20203;-56
2021/08/14 08:49:59;;;;;;;7.40;5.65;;;25.50;50.40;;;;;;5031136;28;20199;-55
2021/08/14 08:52:25;;;;;;;6.80;5.75;;;25.80;49.20;;;;;;5029526;28;20290;-55
2021/08/14 08:54:52;;;;;;;7.88;6.15;;;26.00;49.20;;;;;;5031347;28;20230;-56
2021/08/14 08:57:18;;;;;;;8.32;5.63;;;25.80;45.50;;;;;;5035039;28;20232;-54
2021/08/14 08:59:45;;;;;;;9.48;5.43;;;25.60;44.20;;;;;;5027091;28;20214;-62
2021/08/14 09:02:11;;;;;;;6.78;5.45;;;25.60;44.80;;;;;;5040498;28;20285;-58
2021/08/14 09:04:38;;;;;;;8.55;5.88;;;25.70;45.60;;;;;;5026709;28;20693;-58
2021/08/14 09:07:04;;;;;;;9.15;6.00;;;25.80;46.80;;;;;;5033234;28;20677;-59
2021/08/14 09:09:31;;;;;;;5.43;4.90;;;25.90;48.00;;;;;;5040812;28;20209;-57
2021/08/14 09:12:00;;;;;;;8.27;5.68;;;26.00;49.20;;;;;;5031148;28;20206;-57
2021/08/14 09:14:26;;;;;;;7.40;5.80;;;26.00;49.20;;;;;;5031488;28;20230;-58
2021/08/14 09:16:53;;;;;;;6.75;5.63;;;26.00;49.20;;;;;;5030714;28;20206;-57
2021/08/14 09:19:19;;;;;;;7.20;5.60;;;26.00;49.30;;;;;;5030187;28;20207;-55
2021/08/14 09:21:46;;;;;;;7.47;5.72;;;26.10;50.90;;;;;;5038010;28;20236;-52
2021/08/14 09:24:12;;;;;;;6.90;5.50;;;26.10;51.60;;;;;;5028133;28;20245;-59
2021/08/14 09:26:39;;;;;;;6.85;5.30;;;26.10;51.30;;;;;;5029430;28;20254;-61
2021/08/14 09:29:05;;;;;;;7.13;5.72;;;26.10;51.30;;;;;;5030281;28;21027;-60
2021/08/14 09:31:32;;;;;;;7.13;5.50;;;26.10;51.20;;;;;;5028679;28;20738;-61
2021/08/14 09:33:58;;;;;;;6.25;5.25;;;26.10;51.30;;;;;;5014220;28;20199;-53
2021/08/14 09:36:25;;;;;;;6.50;5.90;;;26.10;51.90;;;;;;5025473;28;20229;-50
2021/08/14 09:38:52;;;;;;;6.13;5.53;;;26.00;51.50;;;;;;5030178;28;20202;-54
2021/08/14 09:41:18;;;;;;;6.68;5.43;;;26.00;51.60;;;;;;5030325;28;20277;-56
2021/08/14 09:43:45;;;;;;;6.57;5.55;;;26.10;51.50;;;;;;5033975;28;20209;-55
2021/08/14 09:46:11;;;;;;;5.90;5.30;;;26.10;51.50;;;;;;5023054;28;20256;-55
2021/08/14 09:48:38;;;;;;;7.18;5.50;;;26.00;51.40;;;;;;5028289;28;20679;-55
2021/08/14 09:51:04;;;;;;;6.88;5.85;;;26.00;51.50;;;;;;5028145;28;20809;-55
2021/08/14 09:53:30;;;;;;;7.22;5.97;;;26.00;51.70;;;;;;5026315;28;20466;-55
2021/08/14 09:55:57;;;;;;;6.25;5.60;;;26.00;51.50;;;;;;5028674;28;20601;-54
2021/08/14 09:58:24;;;;;;;5.95;5.35;;;26.00;51.50;;;;;;5027810;28;20206;-55
2021/08/14 10:00:50;;;;;;;6.63;5.93;;;26.00;51.40;;;;;;5025155;28;20237;-52
2021/08/14 10:03:17;;;;;;;7.28;5.90;;;26.00;51.40;;;;;;5029315;28;20203;-55
2021/08/14 10:05:43;;;;;;;6.93;5.70;;;26.00;51.50;;;;;;5028859;28;20220;-54
2021/08/14 10:08:10;;;;;;;6.80;6.10;;;26.00;51.60;;;;;;5028503;28;20206;-55
2021/08/14 10:10:36;;;;;;;6.03;5.43;;;26.00;51.50;;;;;;5039058;28;20204;-55
2021/08/14 10:13:03;;;;;;;7.20;5.60;;;26.00;51.50;;;;;;5030856;28;20293;-54
2021/08/14 10:15:29;;;;;;;7.30;5.57;;;26.10;51.50;;;;;;5030226;28;20841;-54
2021/08/14 10:17:56;;;;;;;6.47;5.75;;;26.10;51.50;;;;;;5032590;28;20675;-55
2021/08/14 10:20:22;;;;;;;7.03;5.75;;;26.10;51.40;;;;;;5027668;28;20682;-52
2021/08/14 10:22:48;;;;;;;6.82;5.47;;;26.10;51.40;;;;;;5029290;28;20522;-54
2021/08/14 10:25:15;;;;;;;6.53;5.53;;;26.10;51.40;;;;;;5029974;28;20226;-57
2021/08/14 10:27:42;;;;;;;6.50;5.75;;;26.10;51.30;;;;;;5028582;28;20212;-53
2021/08/14 10:30:08;;;;;;;6.65;5.40;;;26.10;51.20;;;;;;5028759;28;20286;-54
2021/08/14 10:32:35;;;;;;;6.65;6.00;;;26.10;51.10;;;;;;5029323;28;20217;-56
2021/08/14 10:35:01;;;;;;;7.07;5.20;;;26.10;51.10;;;;;;5033952;28;20260;-52
2021/08/14 10:37:27;;;;;;;8.18;6.28;;;26.10;51.10;;;;;;5032983;28;20298;-50
2021/08/14 10:39:55;;;;;;;5.95;5.38;;;26.10;51.00;;;;;;5032945;28;20352;-54
2021/08/14 10:42:22;;;;;;;6.80;6.10;;;26.10;51.00;;;;;;5030423;28;20202;-53
2021/08/14 10:44:50;;;;;;;7.88;5.97;;;26.10;51.00;;;;;;5032563;28;20230;-52
2021/08/14 10:47:17;;;;;;;7.07;5.50;;;26.10;50.90;;;;;;5032098;28;20199;-53
2021/08/14 10:49:47;;;;;;;6.32;5.72;;;26.10;50.90;;;;;;5031932;28;20212;-54
2021/08/14 10:52:14;;;;;;;6.40;5.07;;;26.10;51.00;;;;;;5032579;28;20198;-49
2021/08/14 10:54:40;;;;;;;7.32;5.38;;;26.10;51.20;;;;;;5034362;28;20232;-52
2021/08/14 10:57:08;;;;;;;5.93;5.32;;;26.20;51.60;;;;;;5028190;28;20209;-49
2021/08/14 10:59:35;;;;;;;6.03;5.20;;;26.20;51.80;;;;;;5028755;28;20207;-52
2021/08/14 11:02:01;;;;;;;7.32;5.40;;;26.20;52.00;;;;;;5032080;28;20668;-52
2021/08/14 11:04:28;;;;;;;6.55;5.82;;;26.20;52.80;;;;;;5047406;28;20696;-52
2021/08/14 11:06:54;;;;;;;7.32;5.82;;;26.20;53.30;;;;;;5035475;28;20577;-54
2021/08/14 11:09:20;;;;;;;6.63;5.75;;;26.20;53.30;;;;;;5033589;28;20220;-56
2021/08/14 11:11:47;;;;;;;8.45;5.65;;;26.20;53.00;;;;;;5033531;28;20289;-55
2021/08/14 11:14:15;;;;;;;5.80;5.20;;;26.20;52.80;;;;;;5034631;28;20300;-58
2021/08/14 11:16:42;;;;;;;5.72;5.10;;;26.20;53.10;;;;;;5031564;28;20379;-58
2021/08/14 11:19:08;;;;;;;6.00;5.43;;;26.20;52.90;;;;;;5026622;28;20198;-58
2021/08/14 11:21:35;;;;;;;7.50;5.00;;;26.10;52.80;;;;;;5040320;28;20224;-58
2021/08/14 11:24:01;;;;;;;6.28;5.28;;;26.10;51.10;;;;;;5033096;28;20222;-58
2021/08/14 11:26:28;;;;;;;8.82;5.53;;;26.10;50.50;;;;;;5029571;28;20198;-57
2021/08/14 11:28:54;;;;;;;6.32;5.28;;;26.10;52.10;;;;;;5031920;28;20242;-56
2021/08/14 11:31:20;;;;;;;5.93;5.32;;;26.10;52.00;;;;;;5031979;28;20261;-56
2021/08/14 11:33:47;;;;;;;6.00;5.40;;;26.10;52.00;;;;;;5031174;28;20227;-57
2021/08/14 11:36:13;;;;;;;6.97;5.82;;;26.10;51.90;;;;;;5031343;28;20284;-56
2021/08/14 11:38:41;;;;;;;7.22;5.78;;;26.10;51.90;;;;;;5033158;28;20317;-57
2021/08/14 11:41:07;;;;;;;8.13;5.30;;;26.10;51.90;;;;;;5031987;28;20820;-57
2021/08/14 11:43:34;;;;;;;6.13;5.50;;;26.10;51.80;;;;;;5029784;28;20601;-57
2021/08/14 11:46:00;;;;;;;7.05;5.20;;;26.10;51.60;;;;;;5026431;28;20655;-57
2021/08/14 11:48:26;;;;;;;5.95;5.30;;;26.10;51.60;;;;;;5032100;28;20658;-57
2021/08/14 11:50:54;;;;;;;7.15;5.45;;;26.10;51.50;;;;;;5030688;28;20306;-58
2021/08/14 11:53:21;;;;;;;6.20;5.63;;;26.10;51.30;;;;;;5028891;28;20285;-57
2021/08/14 11:55:48;;;;;;;7.43;5.78;;;26.10;51.30;;;;;;5031269;28;20226;-57
2021/08/14 11:58:14;;;;;;;7.68;6.05;;;26.10;51.10;;;;;;5031476;28;20224;-57
2021/08/14 12:00:40;;;;;;;8.68;6.25;;;26.10;51.00;;;;;;5028209;28;20298;-58
2021/08/14 12:03:07;;;;;;;6.03;5.07;;;26.10;51.00;;;;;;5029585;28;20225;-57
2021/08/14 12:05:33;;;;;;;8.23;5.82;;;26.10;51.00;;;;;;5030713;28;20206;-59
2021/08/14 12:08:00;;;;;;;6.20;5.60;;;26.10;50.90;;;;;;5031620;28;20207;-59
2021/08/14 12:10:26;;;;;;;9.00;6.63;;;26.10;51.00;;;;;;5028717;28;20198;-59
2021/08/14 12:12:53;;;;;;;6.18;5.57;;;26.10;50.80;;;;;;5027292;28;20201;-58
2021/08/14 12:15:19;;;;;;;6.70;6.00;;;26.10;50.90;;;;;;5031943;28;20230;-58
2021/08/14 12:17:46;;;;;;;6.75;6.03;;;26.10;50.80;;;;;;5031403;28;20198;-58
2021/08/14 12:20:12;;;;;;;15.68;10.10;;;26.10;50.90;;;;;;5030214;28;20627;-58
2021/08/14 12:22:38;;;;;;;20.35;13.18;;;26.10;51.50;;;;;;5028109;28;20195;-58
2021/08/14 12:25:05;;;;;;;20.80;13.63;;;26.20;52.10;;;;;;5027837;28;20207;-58
2021/08/14 12:27:32;;;;;;;24.17;15.68;;;26.20;53.80;;;;;;5030263;28;20208;-57
2021/08/14 12:29:58;;;;;;;24.80;15.82;;;26.20;54.70;;;;;;5031119;28;20210;-60
2021/08/14 12:32:25;;;;;;;25.45;16.25;;;26.20;54.40;;;;;;5029245;28;20209;-58
2021/08/14 12:34:51;;;;;;;21.98;15.15;;;26.20;55.00;;;;;;5030611;28;20305;-57
2021/08/14 12:37:18;;;;;;;20.63;13.93;;;26.20;55.40;;;;;;5030053;28;20234;-58
2021/08/14 12:39:44;;;;;;;21.25;14.07;;;26.20;55.00;;;;;;5031276;28;20293;-57
2021/08/14 12:42:11;;;;;;;26.08;14.07;;;26.20;55.20;;;;;;5031493;28;20201;-58